Terminal Aerodrome Forecast
Issued by NWS Twin Cities, MN

Home | Current Version | Previous Version | Text Only | Print | Product List | Glossary Off
Versions: 1 2 3 4 5 6 7 8 9 10 11 12 13 14 15 16 17

000
FTUS43 KMPX 231700
TAFSTC
TAF
KSTC 231739Z 2318/2418 36009KT 6SM BR OVC010
      TEMPO 2318/2321 3SM -RASN OVC009
     FM232100 34011KT 5SM -SHSN BR OVC007
     FM240600 33011KT 4SM BR OVC006=

USA.gov is the U.S. government's official web portal to all federal, state and local government web resources and services.